createdAt,value
2023-03-31T00:01:34.834Z,37.10
2023-03-31T00:04:05.983Z,36.10
2023-03-31T00:06:41.815Z,37.30
2023-03-31T00:09:12.023Z,36.90
2023-03-31T00:11:40.626Z,35.80
2023-03-31T00:14:09.167Z,36.60
2023-03-31T00:16:38.073Z,35.70
2023-03-31T00:19:06.370Z,36.10
2023-03-31T00:21:36.938Z,36.00
2023-03-31T00:24:09.188Z,34.30
2023-03-31T00:26:39.814Z,34.30
2023-03-31T00:29:09.196Z,34.30
2023-03-31T00:31:39.087Z,32.60
2023-03-31T00:34:07.541Z,32.60
2023-03-31T00:36:37.115Z,32.00
2023-03-31T00:39:10.482Z,31.70
2023-03-31T00:41:39.379Z,29.90
2023-03-31T00:44:13.916Z,29.20
2023-03-31T00:46:56.404Z,25.40
2023-03-31T00:49:34.928Z,25.90
2023-03-31T00:52:10.878Z,27.20
2023-03-31T00:54:39.087Z,28.30
2023-03-31T00:57:07.575Z,26.00
2023-03-31T00:59:41.597Z,23.70
2023-03-31T01:02:09.877Z,22.10
2023-03-31T01:04:51.069Z,22.10
2023-03-31T01:07:26.557Z,22.00
2023-03-31T01:09:59.158Z,22.50
2023-03-31T01:12:28.148Z,20.90
2023-03-31T01:14:56.645Z,22.20
2023-03-31T01:17:25.235Z,20.30
2023-03-31T01:20:07.308Z,18.90
2023-03-31T01:22:46.281Z,18.30
2023-03-31T01:25:45.809Z,16.80
2023-03-31T01:28:42.388Z,17.30
2023-03-31T01:31:16.991Z,17.00
2023-03-31T01:33:49.014Z,17.30
2023-03-31T01:36:23.077Z,16.40
2023-03-31T01:39:10.159Z,16.40
2023-03-31T01:42:15.511Z,15.50
2023-03-31T01:45:19.735Z,14.50
2023-03-31T01:48:14.801Z,15.00
2023-03-31T01:51:15.524Z,13.60
2023-03-31T01:53:54.292Z,14.20
2023-03-31T01:56:37.442Z,13.50
2023-03-31T02:01:47.279Z,11.80
2023-03-31T02:04:24.971Z,13.30
2023-03-31T02:06:57.701Z,13.60
2023-03-31T02:09:29.436Z,12.80
2023-03-31T02:11:57.775Z,13.20
2023-03-31T02:14:28.064Z,12.70
2023-03-31T02:16:58.655Z,13.20
2023-03-31T02:19:29.852Z,12.20
2023-03-31T02:21:59.297Z,13.00
2023-03-31T02:24:27.904Z,11.70
2023-03-31T02:27:37.946Z,11.50
2023-03-31T02:30:07.983Z,11.90
2023-03-31T02:32:44.644Z,10.50
2023-03-31T02:35:18.018Z,9.80
2023-03-31T02:40:21.825Z,8.70
2023-03-31T02:42:50.093Z,9.40
2023-03-31T02:45:53.774Z,9.40
2023-03-31T02:48:32.918Z,9.20
2023-03-31T02:51:10.467Z,9.40
2023-03-31T02:54:18.754Z,10.40
2023-03-31T02:56:57.322Z,8.90
2023-03-31T02:59:58.126Z,8.70
2023-03-31T03:02:32.585Z,8.20
2023-03-31T03:05:09.912Z,9.50
2023-03-31T03:07:52.002Z,8.60
2023-03-31T03:10:26.518Z,7.80
2023-03-31T03:13:01.145Z,8.70
2023-03-31T03:15:41.361Z,8.60
2023-03-31T03:18:10.409Z,8.00
2023-03-31T03:20:39.427Z,8.70
2023-03-31T03:23:07.714Z,8.10
2023-03-31T03:25:35.899Z,9.00
2023-03-31T03:28:04.149Z,8.70
2023-03-31T03:30:32.470Z,8.50
2023-03-31T03:33:03.531Z,8.30
2023-03-31T03:35:33.247Z,8.20
2023-03-31T03:38:01.678Z,8.40
2023-03-31T03:40:30.824Z,9.10
2023-03-31T03:42:59.149Z,9.10
2023-03-31T03:45:28.194Z,9.80
2023-03-31T03:47:59.980Z,8.80
2023-03-31T03:50:28.223Z,9.30
2023-03-31T03:52:56.629Z,8.60
2023-03-31T03:55:29.169Z,9.00
2023-03-31T03:57:57.443Z,8.40
2023-03-31T04:00:25.957Z,8.30
2023-03-31T04:02:55.524Z,7.90
2023-03-31T04:05:23.911Z,8.30
2023-03-31T04:07:52.080Z,8.60
2023-03-31T04:10:22.029Z,9.00
2023-03-31T04:12:50.599Z,10.10
2023-03-31T04:15:18.753Z,11.90
2023-03-31T04:17:51.021Z,11.20
2023-03-31T04:20:19.929Z,9.80
2023-03-31T04:22:50.929Z,10.60
2023-03-31T04:25:20.013Z,10.50
2023-03-31T04:27:55.116Z,8.70
2023-03-31T04:30:31.082Z,9.40
2023-03-31T04:33:02.933Z,8.70
2023-03-31T04:35:50.067Z,9.30
2023-03-31T04:38:24.322Z,8.40
2023-03-31T04:40:52.968Z,6.30
2023-03-31T04:43:22.640Z,10.50
2023-03-31T04:45:51.106Z,12.30
2023-03-31T04:48:19.408Z,10.70
2023-03-31T04:50:48.400Z,10.10
2023-03-31T04:53:16.638Z,9.80
2023-03-31T04:55:46.385Z,9.80
2023-03-31T04:58:14.943Z,8.80
2023-03-31T05:00:44.175Z,10.00
2023-03-31T05:03:13.000Z,9.20
2023-03-31T05:05:41.664Z,9.70
2023-03-31T05:08:10.081Z,9.40
2023-03-31T05:10:46.880Z,9.80
2023-03-31T05:13:16.953Z,9.20
2023-03-31T05:15:45.653Z,9.10
2023-03-31T05:18:14.895Z,9.20
2023-03-31T05:20:43.419Z,9.00
2023-03-31T05:23:11.664Z,9.60
2023-03-31T05:25:42.443Z,9.40
2023-03-31T05:28:10.921Z,9.20
2023-03-31T05:30:39.110Z,9.90
2023-03-31T05:33:07.486Z,9.20
2023-03-31T05:35:36.792Z,9.10
2023-03-31T05:38:04.976Z,8.60
2023-03-31T05:40:33.981Z,8.60
2023-03-31T05:43:02.264Z,9.30
2023-03-31T05:45:31.251Z,10.50
2023-03-31T05:47:59.688Z,9.40
2023-03-31T05:50:28.343Z,8.70
2023-03-31T05:52:57.987Z,8.50
2023-03-31T05:55:33.580Z,8.30
2023-03-31T05:58:02.086Z,8.50
2023-03-31T06:00:31.682Z,7.80
2023-03-31T06:03:09.807Z,8.00
2023-03-31T06:05:38.249Z,8.10
2023-03-31T06:08:07.846Z,8.40
2023-03-31T06:10:38.573Z,8.10
2023-03-31T06:13:07.213Z,7.90
2023-03-31T06:15:41.791Z,8.90
2023-03-31T06:18:11.503Z,8.80
2023-03-31T06:20:39.960Z,8.40
2023-03-31T06:23:08.157Z,8.40
2023-03-31T06:25:50.358Z,8.10
2023-03-31T06:28:20.333Z,7.50
2023-03-31T06:30:48.607Z,7.80
2023-03-31T06:33:17.868Z,9.80
2023-03-31T06:35:46.439Z,7.80
2023-03-31T06:38:15.396Z,7.50
2023-03-31T06:40:43.717Z,7.10
2023-03-31T06:43:12.242Z,7.10
2023-03-31T06:45:41.671Z,8.00
2023-03-31T06:48:10.038Z,7.60
2023-03-31T06:50:39.518Z,7.60
2023-03-31T06:53:08.925Z,7.50
2023-03-31T06:55:37.652Z,7.80
2023-03-31T06:58:06.269Z,7.50
2023-03-31T07:00:34.573Z,7.40
2023-03-31T07:03:25.189Z,6.90
2023-03-31T07:05:55.133Z,7.50
2023-03-31T07:08:23.389Z,7.10
2023-03-31T07:10:58.009Z,7.70
2023-03-31T07:13:26.608Z,7.20
2023-03-31T07:15:55.849Z,7.40
2023-03-31T07:18:34.418Z,6.60
2023-03-31T07:21:07.248Z,6.70
2023-03-31T07:23:38.454Z,6.80
2023-03-31T07:26:08.046Z,6.50
2023-03-31T07:28:37.635Z,7.20
2023-03-31T07:31:15.552Z,7.00
2023-03-31T07:33:44.190Z,7.20
2023-03-31T07:36:14.177Z,7.30
2023-03-31T07:38:47.053Z,9.00
2023-03-31T07:41:20.067Z,8.40
2023-03-31T07:43:48.776Z,8.10
2023-03-31T07:46:22.677Z,7.70
2023-03-31T07:48:52.789Z,6.90
2023-03-31T07:51:23.775Z,7.00
2023-03-31T07:53:52.906Z,6.90
2023-03-31T07:56:24.843Z,7.20
2023-03-31T07:58:57.362Z,7.70
2023-03-31T08:01:29.077Z,7.00
2023-03-31T08:03:59.318Z,9.40
2023-03-31T08:06:29.276Z,6.50
2023-03-31T08:08:57.996Z,7.00
2023-03-31T08:11:26.429Z,6.90
2023-03-31T08:13:55.602Z,6.50
2023-03-31T08:16:23.991Z,6.90
2023-03-31T08:18:54.518Z,6.60
2023-03-31T08:21:24.580Z,7.30
2023-03-31T08:24:01.812Z,6.90
2023-03-31T08:26:32.997Z,6.20
2023-03-31T08:29:01.300Z,5.60
2023-03-31T08:31:30.749Z,6.10
2023-03-31T08:33:59.151Z,6.50
2023-03-31T08:36:31.074Z,6.50
2023-03-31T08:39:00.969Z,5.70
2023-03-31T08:41:42.960Z,5.70
2023-03-31T08:44:15.588Z,5.90
2023-03-31T08:46:45.402Z,5.90
2023-03-31T08:49:16.646Z,6.30
2023-03-31T08:52:05.419Z,5.70
2023-03-31T08:54:47.212Z,5.80
2023-03-31T08:57:20.160Z,5.80
